Latest Weather Observations for Bougainville Reef

IDQ60801

Issued at 8:31 pm EST Sunday 2 August 2015 (issued every 30 minutes, with the page automatically refreshed every 10 minutes)

About weather observations | Map of weather stations | Latest weather observations for QLD | Other Formats
Station Details ID: 200840 Name: BOUGAINVILLE REEF Lat: -15.49 Lon: 147.12 Height: 0.0 m
Data from the previous 72 hours. | See also: Recent months for locations in Queensland
Date/Time
EST
Temp
°C
App
Temp
°C
Dew
Point
Rel
Hum
%
Delta-T
°C
Wind Press
QNH
hPa
Press
MSL
hPa
Rain
since 9 am
mm
Dir
 
Spd
km/h
Gust
km/h
Spd
kts
Gust
kts
02/08:30pm 24.5 - - - - SE 39 46 21 25 1017.4 - -
02/08:00pm 24.5 - - - - SE 39 44 21 24 1017.2 1017.0 -
02/07:30pm 24.4 - - - - SSE 39 44 21 24 1016.9 - -
02/07:00pm 24.3 - - - - SSE 37 44 20 24 1016.5 1016.3 -
02/06:30pm 24.6 - - - - SE 39 44 21 24 1016.2 - -
02/06:00pm 24.4 - - - - SSE 39 46 21 25 1016.1 1015.9 -
02/05:30pm 24.3 - - - - SSE 41 46 22 25 1015.9 - -
02/05:00pm 24.4 - - - - SSE 37 43 20 23 1015.9 1015.8 -
02/04:30pm 24.6 - - - - SE 35 41 19 22 1015.9 - -
02/04:00pm 24.5 - - - - SE 33 41 18 22 1015.8 1015.7 -
02/03:30pm 24.1 - - - - SSE 24 32 13 17 1015.9 - -
02/03:00pm 23.9 - - - - SSE 24 30 13 16 1016.2 1016.2 -
02/02:30pm 24.0 - - - - SSE 30 35 16 19 1016.6 - -
02/02:00pm 24.0 - - - - SE 28 35 15 19 1016.9 1016.9 -
02/01:30pm 23.9 - - - - SE 32 35 17 19 1017.2 - -
02/01:00pm 24.3 - - - - SE 30 33 16 18 1017.5 1017.5 -
02/12:30pm 24.5 - - - - SE 30 35 16 19 1017.9 - -
02/12:00pm 24.6 - - - - SE 32 35 17 19 1018.2 1018.2 -
02/11:30am 24.7 - - - - ESE 32 37 17 20 1018.5 - -
02/11:00am 24.5 - - - - SE 30 35 16 19 1018.8 1018.7 -
02/10:30am 24.7 - - - - SE 32 35 17 19 1018.9 - -
02/10:00am 24.7 - - - - SE 41 43 22 23 1019.0 1018.9 -
02/09:30am 24.7 - - - - SE 39 44 21 24 1019.0 - -
02/09:00am 24.8 - - - - ESE 39 46 21 25 1018.7 1018.5 -
02/08:30am 24.7 - - - - ESE 39 43 21 23 1018.4 - -
02/08:00am 23.7 - - - - SE 33 43 18 23 1018.1 1018.0 -
02/07:36am 23.3 - - - - SE 37 59 20 32 1017.9 - -
02/07:30am 23.7 - - - - ESE 37 43 20 23 1017.9 - -
02/07:00am 23.7 - - - - ESE 41 39 22 21 1017.7 1017.5 -
02/06:30am 24.1 - - - - ESE 39 50 21 27 1017.2 - -
02/06:00am 24.3 - - - - ESE 35 39 19 21 1017.0 1016.8 -
02/05:30am 24.2 - - - - ESE 37 44 20 24 1016.8 - -
02/05:00am 23.6 - - - - ESE 39 50 21 27 1016.5 1016.5 -
02/04:30am 23.0 - - - - ESE 35 43 19 23 1016.5 - -
02/04:14am 22.0 - - - - ESE 43 61 23 33 1016.8 - -
02/04:00am 23.8 - - - - ESE 35 44 19 24 1016.5 1016.5 -
02/03:30am 24.0 - - - - ESE 39 46 21 25 1016.7 - -
02/03:00am 24.3 - - - - SE 44 52 24 28 1016.7 1016.6 -
02/02:30am 24.2 - - - - SE 41 48 22 26 1016.8 - -
02/02:00am 24.1 - - - - SE 43 50 23 27 1016.7 1016.6 -
02/01:30am 24.1 - - - - SE 43 50 23 27 1016.9 - -
02/01:00am 24.2 - - - - ESE 43 50 23 27 1017.1 1017.0 -
02/12:30am 24.4 - - - - ESE 46 54 25 29 1017.2 - -
02/12:00am 24.3 - - - - ESE 43 52 23 28 1017.3 1017.2 -
 
Date/Time
EST
Temp
°C
App
Temp
°C
Dew
Point
Rel
Hum
%
Delta-T
°C
Wind Press
QNH
hPa
Press
MSL
hPa
Rain
since 9 am
mm
Dir
 
Spd
km/h
Gust
km/h
Spd
kts
Gust
kts
01/11:30pm 24.4 - - - - ESE 46 56 25 30 1017.4 - -
01/11:00pm 24.2 - - - - ESE 46 54 25 29 1017.4 1017.4 -
01/10:30pm 24.1 - - - - SE 41 50 22 27 1017.4 - -
01/10:00pm 24.0 - - - - ESE 44 48 24 26 1017.5 1017.5 -
01/09:30pm 24.0 - - - - SE 44 54 24 29 1017.5 - -
01/09:00pm 23.9 - - - - SE 41 50 22 27 1017.6 1017.4 -
01/08:30pm 23.9 - - - - SE 41 48 22 26 1017.4 - -
01/08:00pm 24.0 - - - - SE 43 52 23 28 1017.1 1016.9 -
01/07:30pm 24.0 - - - - SE 41 46 22 25 1016.6 - -
01/07:00pm 24.0 - - - - SE 44 54 24 29 1016.3 1016.1 -
01/06:30pm 24.1 - - - - SE 44 52 24 28 1015.9 - -
01/06:00pm 24.0 - - - - SE 41 52 22 28 1015.6 1015.5 -
01/05:30pm 24.1 - - - - SE 44 52 24 28 1015.5 - -
01/05:00pm 24.1 - - - - SE 44 50 24 27 1015.4 1015.3 -
01/04:30pm 24.2 - - - - SE 43 48 23 26 1015.5 - -
01/04:00pm 24.3 - - - - SE 43 50 23 27 1015.5 1015.4 -
01/03:30pm 24.2 - - - - SE 43 50 23 27 1015.4 - -
01/03:00pm 24.1 - - - - SE 43 48 23 26 1015.5 1015.5 -
01/02:30pm 24.1 - - - - SE 44 50 24 27 1015.6 - -
01/02:00pm 24.1 - - - - SE 44 46 24 25 1015.8 1015.8 -
01/01:30pm 24.1 - - - - SE 41 48 22 26 1016.1 - -
01/01:00pm 24.3 - - - - SE 43 48 23 26 1016.4 1016.4 -
01/12:30pm 24.0 - - - - SE 44 52 24 28 1016.8 - -
01/12:00pm 24.1 - - - - SE 46 52 25 28 1017.3 1017.3 -
01/11:30am 24.2 - - - - SE 44 52 24 28 1017.5 - -
01/11:00am 24.1 - - - - SE 48 52 26 28 1017.9 1017.9 -
01/10:30am 24.1 - - - - SE 46 56 25 30 1018.2 - -
01/10:00am 24.1 - - - - SE 46 50 25 27 1018.2 1018.1 -
01/09:30am 24.2 - - - - SE 41 50 22 27 1018.2 - -
01/09:00am 24.0 - - - - SE 43 50 23 27 1017.9 1017.8 -
01/08:30am 24.0 - - - - SE 44 50 24 27 1017.8 - -
01/08:00am 23.9 - - - - SE 41 52 22 28 1017.6 1017.4 -
01/07:30am 23.9 - - - - SE 44 50 24 27 1017.3 - -
01/07:00am 23.7 - - - - ESE 43 50 23 27 1017.2 1017.0 -
01/06:30am 23.7 - - - - ESE 43 48 23 26 1017.1 - -
01/06:00am 23.7 - - - - SE 43 50 23 27 1016.8 1016.6 -
01/05:30am 23.7 - - - - SE 46 52 25 28 1016.5 - -
01/05:00am 23.4 - - - - SE 43 48 23 26 1016.4 1016.4 -
01/04:30am 23.7 - - - - ESE 48 56 26 30 1016.4 - -
01/04:00am 23.9 - - - - SE 39 48 21 26 1016.6 1016.4 -
01/03:30am 23.9 - - - - SE 37 43 20 23 1016.5 - -
01/03:00am 24.0 - - - - ESE 41 50 22 27 1016.4 1016.4 -
01/02:30am 23.9 - - - - ESE 44 54 24 29 1016.5 - -
01/02:00am 23.9 - - - - ESE 41 50 22 27 1016.8 1016.8 -
01/01:30am 23.9 - - - - ESE 41 46 22 25 1017.1 - -
01/01:00am 23.8 - - - - SE 44 54 24 29 1017.2 1017.1 -
01/12:30am 23.9 - - - - ESE 44 56 24 30 1017.2 - -
01/12:00am 24.0 - - - - SE 46 54 25 29 1017.4 1017.3 -
 
Date/Time
EST
Temp
°C
App
Temp
°C
Dew
Point
Rel
Hum
%
Delta-T
°C
Wind Press
QNH
hPa
Press
MSL
hPa
Rain
since 9 am
mm
Dir
 
Spd
km/h
Gust
km/h
Spd
kts
Gust
kts
31/11:30pm 23.9 - - - - ESE 48 57 26 31 1017.4 - -
31/11:00pm 24.2 - - - - SE 48 61 26 33 1017.4 1017.3 -
31/10:30pm 24.0 - - - - SE 48 56 26 30 1017.5 - -
31/10:00pm 24.1 - - - - SE 44 52 24 28 1017.4 1017.3 -
31/09:30pm 24.1 - - - - SE 46 54 25 29 1017.4 - -
31/09:00pm 24.2 - - - - SE 48 61 26 33 1017.2 1017.0 -
31/08:30pm 24.3 - - - - SE 48 54 26 29 1017.0 - -
31/08:00pm 24.2 - - - - SE 46 56 25 30 1017.0 1016.6 -
31/07:30pm 24.1 - - - - SSE 44 54 24 29 1016.6 - -
31/07:00pm 24.3 - - - - SE 46 54 25 29 1016.2 1016.1 -
31/06:30pm 24.2 - - - - SE 43 52 23 28 1016.0 - -
31/06:00pm 24.1 - - - - SE 44 48 24 26 1015.9 1015.7 -
31/05:30pm 24.1 - - - - SE 44 50 24 27 1015.7 - -
31/05:00pm 24.1 - - - - SE 44 48 24 26 1015.5 1015.2 -
31/04:30pm 24.1 - - - - SE 44 54 24 29 1015.2 - -
31/04:00pm 24.0 - - - - SE 43 52 23 28 1015.1 1014.9 -
31/03:30pm 24.0 - - - - SE 44 50 24 27 1015.1 - -
31/03:00pm 24.0 - - - - SE 43 52 23 28 1015.2 1015.1 -
31/02:30pm 23.9 - - - - SE 44 52 24 28 1015.5 - -
31/02:00pm 24.0 - - - - SE 43 50 23 27 1015.7 1015.8 -
31/01:30pm 23.9 - - - - SE 43 50 23 27 1016.1 - -
31/01:00pm 23.9 - - - - SE 46 50 25 27 1016.6 1016.5 -
31/12:30pm 24.1 - - - - SE 44 52 24 28 1016.8 - -
31/12:00pm 24.1 - - - - SE 44 52 24 28 1017.2 1017.3 -
31/11:30am 24.1 - - - - SE 44 50 24 27 1017.6 - -
31/11:00am 24.0 - - - - SE 44 52 24 28 1017.8 1017.7 -
31/10:30am 23.9 - - - - SE 46 52 25 28 1018.0 - -
31/10:00am 23.8 - - - - SE 44 54 24 29 1018.2 1018.1 -
31/09:30am 23.9 - - - - SE 46 52 25 28 1018.3 - -
31/09:00am 23.8 - - - - SE 46 52 25 28 1018.4 1018.3 -
31/08:30am 23.8 - - - - SE 43 54 23 29 1018.2 - -
31/08:00am 23.6 - - - - SE 43 50 23 27 1017.9 1017.8 -
31/07:30am 23.6 - - - - SE 44 52 24 28 1017.8 - -
31/07:00am 23.7 - - - - SE 48 54 26 29 1017.4 1017.3 -
31/06:30am 23.7 - - - - SE 52 57 28 31 1017.1 - -
31/06:00am 23.8 - - - - SE 48 61 26 33 1017.0 1016.8 -
31/05:30am 23.6 - - - - SE 46 57 25 31 1017.0 - -
31/05:00am 23.9 - - - - SE 44 52 24 28 1016.8 1016.7 -
31/04:30am 23.8 - - - - SE 43 50 23 27 1016.9 - -
31/04:00am 23.4 - - - - SE 43 54 23 29 1017.2 1017.1 -
31/03:30am 23.4 - - - - SE 43 50 23 27 1017.4 - -
31/03:00am 23.7 - - - - SE 39 48 21 26 1017.5 1017.4 -
31/02:30am 23.6 - - - - SE 43 48 23 26 1017.7 - -
31/02:00am 23.7 - - - - SE 44 54 24 29 1017.7 1017.7 -
31/01:30am 23.6 - - - - SE 48 56 26 30 1018.0 - -
31/01:00am 23.7 - - - - SE 48 57 26 31 1018.3 1018.3 -
31/12:30am 23.8 - - - - SE 48 57 26 31 1018.5 - -
31/12:00am 23.8 - - - - SE 43 54 23 29 1018.7 1018.6 -
 
Date/Time
EST
Temp
°C
App
Temp
°C
Dew
Point
Rel
Hum
%
Delta-T
°C
Wind Press
QNH
hPa
Press
MSL
hPa
Rain
since 9 am
mm
Dir
 
Spd
km/h
Gust
km/h
Spd
kts
Gust
kts
30/11:30pm 23.8 - - - - SE 44 54 24 29 1018.8 - -
30/11:00pm 23.8 - - - - SE 46 54 25 29 1018.8 1018.6 -
30/10:30pm 24.0 - - - - SE 48 56 26 30 1018.7 - -
30/10:00pm 24.0 - - - - SE 43 54 23 29 1018.6 1018.6 -
30/09:30pm 23.9 - - - - SE 43 50 23 27 1018.7 - -
30/09:00pm 23.0 - - - - SE 44 44 24 24 1018.7 1018.5 -

Other Formats:

Comma delimited format used in spreadsheet applications
http://www.bom.gov.au/fwo/IDQ60801/IDQ60801.95288.axf

JavaScript Object Notation format (JSON) in row-major order
http://www.bom.gov.au/fwo/IDQ60801/IDQ60801.95288.json